createdAt,value
2022-09-09T00:01:52.830Z,17.30
2022-09-09T00:04:27.327Z,17.10
2022-09-09T00:07:01.645Z,17.20
2022-09-09T00:09:31.287Z,17.20
2022-09-09T00:12:03.029Z,17.20
2022-09-09T00:14:38.385Z,17.30
2022-09-09T00:17:13.267Z,17.20
2022-09-09T00:19:46.733Z,17.20
2022-09-09T00:22:18.748Z,17.20
2022-09-09T00:24:47.471Z,17.20
2022-09-09T00:27:22.913Z,17.20
2022-09-09T00:29:55.862Z,17.20
2022-09-09T00:32:28.636Z,17.20
2022-09-09T00:34:59.457Z,17.20
2022-09-09T00:37:27.586Z,17.10
2022-09-09T00:39:58.354Z,17.10
2022-09-09T00:42:27.693Z,17.10
2022-09-09T00:45:00.156Z,17.00
2022-09-09T00:47:41.012Z,17.00
2022-09-09T00:50:29.059Z,17.00
2022-09-09T00:53:06.566Z,17.10
2022-09-09T00:55:42.577Z,17.10
2022-09-09T00:58:10.297Z,17.00
2022-09-09T01:00:44.124Z,17.00
2022-09-09T01:03:29.442Z,17.00
2022-09-09T01:06:06.361Z,16.90
2022-09-09T01:08:46.053Z,16.70
2022-09-09T01:11:20.426Z,16.80
2022-09-09T01:13:50.350Z,16.90
2022-09-09T01:16:18.686Z,17.00
2022-09-09T01:18:50.295Z,16.90
2022-09-09T01:21:23.061Z,16.90
2022-09-09T01:24:09.333Z,16.90
2022-09-09T01:26:40.296Z,16.90
2022-09-09T01:29:10.425Z,16.90
2022-09-09T01:31:39.182Z,16.80
2022-09-09T01:34:11.835Z,16.70
2022-09-09T01:36:42.184Z,16.70
2022-09-09T01:39:09.044Z,16.70
2022-09-09T01:41:37.271Z,16.70
2022-09-09T01:44:04.727Z,16.80
2022-09-09T01:46:31.455Z,16.80
2022-09-09T01:48:59.920Z,16.80
2022-09-09T01:51:26.759Z,16.80
2022-09-09T01:53:53.496Z,16.80
2022-09-09T01:56:32.475Z,16.80
2022-09-09T01:59:12.532Z,16.80
2022-09-09T02:01:50.406Z,16.80
2022-09-09T02:04:30.219Z,16.80
2022-09-09T02:06:57.864Z,16.80
2022-09-09T02:09:27.016Z,16.70
2022-09-09T02:12:01.115Z,16.70
2022-09-09T02:14:31.343Z,16.70
2022-09-09T02:17:02.854Z,16.60
2022-09-09T02:19:33.307Z,16.40
2022-09-09T02:22:02.206Z,16.60
2022-09-09T02:24:32.550Z,16.60
2022-09-09T02:27:01.633Z,16.70
2022-09-09T02:29:34.176Z,16.70
2022-09-09T02:32:06.047Z,16.60
2022-09-09T02:34:35.797Z,16.60
2022-09-09T02:37:04.536Z,16.60
2022-09-09T02:39:31.388Z,16.50
2022-09-09T02:41:58.266Z,16.50
2022-09-09T02:44:25.015Z,16.30
2022-09-09T02:47:19.655Z,16.30
2022-09-09T02:50:01.527Z,16.30
2022-09-09T02:52:33.003Z,16.50
2022-09-09T02:55:07.712Z,16.60
2022-09-09T02:57:35.326Z,16.60
2022-09-09T03:00:02.566Z,16.40
2022-09-09T03:02:30.756Z,16.00
2022-09-09T03:04:57.753Z,15.70
2022-09-09T03:07:24.521Z,15.90
2022-09-09T03:09:51.350Z,16.20
2022-09-09T03:12:18.102Z,16.40
2022-09-09T03:14:44.865Z,16.40
2022-09-09T03:17:11.627Z,16.50
2022-09-09T03:19:39.799Z,16.50
2022-09-09T03:22:06.681Z,16.50
2022-09-09T03:24:33.500Z,16.50
2022-09-09T03:27:00.278Z,16.40
2022-09-09T03:29:27.218Z,15.90
2022-09-09T03:31:54.025Z,15.90
2022-09-09T03:34:20.859Z,16.20
2022-09-09T03:36:48.967Z,16.30
2022-09-09T03:39:15.684Z,16.30
2022-09-09T03:41:42.440Z,16.30
2022-09-09T03:44:09.176Z,16.40
2022-09-09T03:46:35.900Z,16.40
2022-09-09T03:49:02.651Z,16.40
2022-09-09T03:51:29.369Z,16.40
2022-09-09T03:53:57.467Z,16.40
2022-09-09T03:56:24.411Z,16.30
2022-09-09T03:58:51.153Z,16.40
2022-09-09T04:01:17.884Z,16.20
2022-09-09T04:03:45.375Z,16.30
2022-09-09T04:06:13.123Z,16.30
2022-09-09T04:08:40.121Z,16.10
2022-09-09T04:11:08.632Z,16.10
2022-09-09T04:13:36.254Z,16.20
2022-09-09T04:16:04.216Z,16.30
2022-09-09T04:18:31.534Z,16.20
2022-09-09T04:20:58.927Z,16.10
2022-09-09T04:23:27.058Z,15.80
2022-09-09T04:25:55.279Z,15.80
2022-09-09T04:28:25.645Z,16.00
2022-09-09T04:30:52.651Z,16.10
2022-09-09T04:33:20.253Z,16.10
2022-09-09T04:35:48.018Z,16.10
2022-09-09T04:38:15.400Z,16.10
2022-09-09T04:40:44.201Z,16.10
2022-09-09T04:43:14.341Z,16.10
2022-09-09T04:45:43.122Z,16.10
2022-09-09T04:48:10.515Z,16.00
2022-09-09T04:50:37.361Z,16.20
2022-09-09T04:53:04.142Z,16.10
2022-09-09T04:55:30.856Z,16.00
2022-09-09T04:57:57.767Z,15.90
2022-09-09T05:00:24.894Z,15.80
2022-09-09T05:02:52.936Z,15.90
2022-09-09T05:05:19.661Z,15.90
2022-09-09T05:07:46.406Z,15.90
2022-09-09T05:10:13.130Z,15.70
2022-09-09T05:12:39.872Z,15.90
2022-09-09T05:15:07.535Z,16.00
2022-09-09T05:17:34.306Z,16.00
2022-09-09T05:20:05.605Z,16.00
2022-09-09T05:22:34.419Z,16.10
2022-09-09T05:25:01.316Z,16.10
2022-09-09T05:27:28.197Z,16.10
2022-09-09T05:29:54.913Z,16.10
2022-09-09T05:32:21.733Z,16.10
2022-09-09T05:34:48.486Z,16.00
2022-09-09T05:37:17.190Z,16.00
2022-09-09T05:39:43.961Z,16.10
2022-09-09T05:42:10.778Z,16.10
2022-09-09T05:44:37.539Z,16.10
2022-09-09T05:47:04.476Z,16.10
2022-09-09T05:49:31.219Z,16.00
2022-09-09T05:51:57.904Z,16.20
2022-09-09T05:54:44.243Z,16.20
2022-09-09T05:57:10.956Z,16.10
2022-09-09T05:59:37.633Z,16.00
2022-09-09T06:02:04.397Z,16.10
2022-09-09T06:04:31.183Z,16.20
2022-09-09T06:06:57.857Z,16.20
2022-09-09T06:09:24.555Z,16.20
2022-09-09T06:11:52.588Z,16.30
2022-09-09T06:14:19.295Z,16.20
2022-09-09T06:16:46.003Z,16.20
2022-09-09T06:19:12.716Z,16.20
2022-09-09T06:21:39.477Z,16.30
2022-09-09T06:24:06.917Z,16.30
2022-09-09T06:26:35.587Z,16.30
2022-09-09T06:29:04.913Z,16.20
2022-09-09T06:31:33.607Z,16.20
2022-09-09T06:34:00.830Z,16.30
2022-09-09T06:36:29.573Z,16.30
2022-09-09T06:38:56.633Z,16.40
2022-09-09T06:41:24.736Z,16.40
2022-09-09T06:43:51.449Z,16.40
2022-09-09T06:46:21.163Z,16.40
2022-09-09T06:48:48.127Z,16.50
2022-09-09T06:51:16.916Z,16.50
2022-09-09T06:53:45.423Z,16.50
2022-09-09T06:56:20.914Z,16.50
2022-09-09T06:58:48.426Z,16.50
2022-09-09T07:01:16.870Z,16.40
2022-09-09T07:03:47.514Z,16.40
2022-09-09T07:06:16.419Z,16.20
2022-09-09T07:08:43.140Z,16.30
2022-09-09T07:11:12.572Z,16.40
2022-09-09T07:13:39.499Z,16.40
2022-09-09T07:16:07.767Z,16.40
2022-09-09T07:18:35.052Z,16.50
2022-09-09T07:21:04.310Z,16.50
2022-09-09T07:23:36.050Z,16.50
2022-09-09T07:26:03.726Z,16.50
2022-09-09T07:28:30.567Z,16.60
2022-09-09T07:30:58.298Z,16.60
2022-09-09T07:33:25.332Z,16.60
2022-09-09T07:35:53.000Z,16.60
2022-09-09T07:38:21.176Z,16.60
2022-09-09T07:40:47.854Z,16.60
2022-09-09T07:43:17.353Z,16.60
2022-09-09T07:45:44.213Z,16.70
2022-09-09T07:48:12.126Z,16.70
2022-09-09T07:50:38.965Z,16.70
2022-09-09T07:53:05.726Z,16.70
2022-09-09T07:55:33.808Z,16.80
2022-09-09T07:58:00.647Z,16.80
2022-09-09T08:00:27.375Z,16.80
2022-09-09T08:02:54.094Z,16.80
2022-09-09T08:05:20.863Z,16.80
2022-09-09T08:07:47.594Z,16.80
2022-09-09T08:10:14.324Z,16.90
2022-09-09T08:13:01.528Z,16.90
2022-09-09T08:15:29.114Z,16.90
2022-09-09T08:17:57.941Z,16.80
2022-09-09T08:20:25.216Z,16.90
2022-09-09T08:22:52.407Z,16.90
2022-09-09T08:25:19.954Z,16.90
2022-09-09T08:27:49.023Z,16.90
2022-09-09T08:30:17.523Z,16.90
2022-09-09T08:32:46.025Z,16.90
2022-09-09T08:35:14.163Z,16.90
2022-09-09T08:37:41.067Z,16.90
2022-09-09T08:40:17.673Z,17.00
2022-09-09T08:42:50.529Z,17.00
2022-09-09T08:45:29.249Z,17.10
2022-09-09T08:48:10.410Z,17.10
2022-09-09T08:50:39.447Z,17.20
2022-09-09T08:53:12.761Z,17.20
2022-09-09T08:55:46.223Z,17.30
2022-09-09T08:58:17.852Z,17.30
2022-09-09T09:01:01.806Z,17.40
2022-09-09T09:03:37.687Z,17.40
2022-09-09T09:06:14.477Z,17.40
2022-09-09T09:08:47.888Z,17.40
2022-09-09T09:11:15.205Z,17.50
2022-09-09T09:13:54.403Z,17.50
2022-09-09T09:16:28.015Z,17.50
2022-09-09T09:18:55.556Z,17.50
2022-09-09T09:21:33.113Z,17.60
2022-09-09T09:24:02.135Z,17.60
2022-09-09T09:26:33.779Z,17.60
2022-09-09T09:29:12.332Z,17.60
2022-09-09T09:31:39.785Z,17.70
2022-09-09T09:34:09.327Z,17.70
2022-09-09T09:36:42.547Z,17.70
2022-09-09T09:41:59.186Z,17.70
2022-09-09T09:44:29.786Z,17.80
2022-09-09T09:47:07.685Z,17.80
2022-09-09T09:49:34.973Z,17.80
2022-09-09T09:52:02.906Z,17.80
2022-09-09T09:54:32.581Z,17.90
2022-09-09T09:57:10.549Z,17.80
2022-09-09T09:59:41.021Z,17.90
2022-09-09T10:02:19.742Z,17.90
2022-09-09T10:04:48.014Z,17.90
2022-09-09T10:07:19.547Z,17.90
2022-09-09T10:09:53.840Z,18.00
2022-09-09T10:12:26.259Z,18.00
2022-09-09T10:15:03.037Z,18.00
2022-09-09T10:17:36.362Z,18.10
2022-09-09T10:20:17.235Z,18.10
2022-09-09T10:22:50.377Z,18.10
2022-09-09T10:25:44.697Z,18.10
2022-09-09T10:28:33.943Z,18.20
2022-09-09T10:31:15.364Z,18.20
2022-09-09T10:33:51.075Z,18.20
2022-09-09T10:36:21.983Z,18.30
2022-09-09T10:38:52.864Z,18.30
2022-09-09T10:41:26.382Z,18.30
2022-09-09T10:44:19.000Z,18.40
2022-09-09T10:47:08.048Z,18.40
2022-09-09T10:49:58.289Z,18.40
2022-09-09T10:52:33.899Z,18.40
2022-09-09T10:55:07.690Z,18.40
2022-09-09T10:57:40.039Z,18.50
2022-09-09T11:00:16.283Z,18.50
2022-09-09T11:02:44.459Z,18.50
2022-09-09T11:05:18.922Z,18.50
2022-09-09T11:07:50.483Z,18.50
2022-09-09T11:10:26.168Z,18.50
2022-09-09T11:12:57.411Z,18.50
2022-09-09T11:15:30.367Z,18.50
2022-09-09T11:18:02.035Z,18.50
2022-09-09T11:20:28.867Z,18.50
2022-09-09T11:23:01.422Z,18.60
2022-09-09T11:25:34.001Z,18.60
2022-09-09T11:28:16.627Z,18.60
2022-09-09T11:30:57.240Z,18.60
2022-09-09T11:33:52.322Z,18.60
2022-09-09T11:36:29.906Z,18.60
2022-09-09T11:39:02.400Z,18.60
2022-09-09T11:41:37.087Z,18.60
2022-09-09T11:44:11.959Z,18.60
2022-09-09T11:46:41.075Z,18.60
2022-09-09T11:49:28.831Z,18.70
2022-09-09T11:51:55.575Z,18.70
2022-09-09T11:54:30.352Z,18.70
2022-09-09T11:56:57.263Z,18.70
2022-09-09T11:59:26.081Z,18.70
2022-09-09T12:01:57.364Z,18.70
2022-09-09T12:04:33.692Z,18.70
2022-09-09T12:07:02.928Z,18.70
2022-09-09T12:09:48.440Z,18.70
2022-09-09T12:12:28.104Z,18.80
2022-09-09T12:15:18.069Z,18.80
2022-09-09T12:17:47.603Z,18.80
2022-09-09T12:20:19.202Z,18.80
2022-09-09T12:22:58.573Z,18.80
2022-09-09T12:25:33.324Z,18.80
2022-09-09T12:28:06.788Z,18.80
2022-09-09T12:30:40.894Z,18.80
2022-09-09T12:33:11.051Z,18.90
2022-09-09T12:35:39.967Z,18.90
2022-09-09T12:38:11.536Z,18.90
2022-09-09T12:40:38.431Z,18.90
2022-09-09T12:43:18.795Z,18.90
2022-09-09T12:45:45.802Z,18.90
2022-09-09T12:48:13.367Z,18.90
2022-09-09T12:50:47.018Z,18.90
2022-09-09T12:53:22.085Z,19.00
2022-09-09T12:55:53.112Z,18.90
2022-09-09T12:58:20.824Z,19.00
2022-09-09T13:00:51.957Z,19.00
2022-09-09T13:03:21.135Z,19.00
2022-09-09T13:05:50.025Z,19.00
2022-09-09T13:08:18.226Z,19.00
2022-09-09T13:10:53.638Z,19.00
2022-09-09T13:13:23.440Z,19.00
2022-09-09T13:15:52.449Z,19.00
2022-09-09T13:18:24.151Z,19.00
2022-09-09T13:20:52.666Z,19.00
2022-09-09T13:23:21.424Z,19.10
2022-09-09T13:25:56.040Z,19.10
2022-09-09T13:28:25.234Z,19.10
2022-09-09T13:31:02.890Z,19.10
2022-09-09T13:33:32.908Z,19.10
2022-09-09T13:36:03.668Z,19.10
2022-09-09T13:38:32.963Z,19.10
2022-09-09T13:41:01.531Z,19.10
2022-09-09T13:43:29.363Z,19.10
2022-09-09T13:45:58.557Z,19.10
2022-09-09T13:48:25.864Z,19.10
2022-09-09T13:51:02.488Z,19.10
2022-09-09T13:53:29.539Z,19.20
2022-09-09T13:55:56.404Z,19.20
2022-09-09T13:58:23.155Z,19.20
2022-09-09T14:00:50.173Z,19.20
2022-09-09T14:03:17.055Z,19.20
2022-09-09T14:05:45.167Z,19.20
2022-09-09T14:08:24.752Z,19.20
2022-09-09T14:10:51.822Z,19.20
2022-09-09T14:13:18.726Z,19.30
2022-09-09T14:15:45.459Z,19.30
2022-09-09T14:18:13.507Z,19.30
2022-09-09T14:20:40.306Z,19.30
2022-09-09T14:23:07.047Z,19.30
2022-09-09T14:25:35.086Z,19.30
2022-09-09T14:28:02.295Z,19.30
2022-09-09T14:30:29.252Z,19.30
2022-09-09T14:32:56.019Z,19.30
2022-09-09T14:35:22.718Z,19.30
2022-09-09T14:37:49.416Z,19.30
2022-09-09T14:40:16.346Z,19.30
2022-09-09T14:42:44.474Z,19.30
2022-09-09T14:45:12.386Z,19.30
2022-09-09T14:47:39.114Z,19.30
2022-09-09T14:50:06.740Z,19.30
2022-09-09T14:52:33.434Z,19.30
2022-09-09T14:55:00.144Z,19.30
2022-09-09T14:57:26.843Z,19.20
2022-09-09T14:59:54.922Z,19.20
2022-09-09T15:02:21.696Z,19.20
2022-09-09T15:04:54.205Z,19.20
2022-09-09T15:07:20.916Z,19.20
2022-09-09T15:09:47.588Z,19.20
2022-09-09T15:12:14.436Z,19.30
2022-09-09T15:14:41.136Z,19.30
2022-09-09T15:17:09.155Z,19.20
2022-09-09T15:19:35.822Z,19.20
2022-09-09T15:22:02.542Z,19.20
2022-09-09T15:24:29.340Z,19.20
2022-09-09T15:26:56.033Z,19.20
2022-09-09T15:29:22.730Z,19.20
2022-09-09T15:31:49.422Z,19.20
2022-09-09T15:34:17.477Z,19.20
2022-09-09T15:36:45.639Z,19.20
2022-09-09T15:39:14.174Z,19.20
2022-09-09T15:41:41.194Z,19.20
2022-09-09T15:44:08.111Z,19.30
2022-09-09T15:46:36.688Z,19.30
2022-09-09T15:49:07.283Z,19.30
2022-09-09T15:51:42.824Z,19.30
2022-09-09T15:54:12.163Z,19.30
2022-09-09T15:56:39.223Z,19.40
2022-09-09T15:59:05.993Z,19.40
2022-09-09T16:01:33.398Z,19.40
2022-09-09T16:04:02.350Z,19.50
2022-09-09T16:06:30.288Z,19.40
2022-09-09T16:08:59.915Z,19.40
2022-09-09T16:11:30.387Z,19.50
2022-09-09T16:13:57.524Z,19.40
2022-09-09T16:16:26.295Z,19.40
2022-09-09T16:18:54.729Z,19.40
2022-09-09T16:21:23.147Z,19.40
2022-09-09T16:23:51.098Z,19.40
2022-09-09T16:26:19.864Z,19.40
2022-09-09T16:28:46.958Z,19.40
2022-09-09T16:31:15.903Z,19.40
2022-09-09T16:33:42.941Z,19.40
2022-09-09T16:36:11.746Z,19.40
2022-09-09T16:38:38.622Z,19.40
2022-09-09T16:41:07.211Z,19.40
2022-09-09T16:43:36.155Z,19.40
2022-09-09T16:46:03.016Z,19.30
2022-09-09T16:48:32.791Z,19.30
2022-09-09T16:51:03.207Z,19.30
2022-09-09T16:53:29.924Z,19.30
2022-09-09T16:55:56.642Z,19.30
2022-09-09T16:58:23.356Z,19.30
2022-09-09T17:00:51.383Z,19.30
2022-09-09T17:03:18.124Z,19.30
2022-09-09T17:05:44.878Z,19.20
2022-09-09T17:08:11.552Z,19.20
2022-09-09T17:10:41.782Z,19.20
2022-09-09T17:13:08.550Z,19.20
2022-09-09T17:15:40.645Z,19.20
2022-09-09T17:18:09.003Z,19.10
2022-09-09T17:20:45.951Z,19.10
2022-09-09T17:23:14.048Z,19.10
2022-09-09T17:25:40.747Z,19.00
2022-09-09T17:28:07.465Z,19.00
2022-09-09T17:30:35.889Z,19.00
2022-09-09T17:33:02.974Z,19.00
2022-09-09T17:35:31.109Z,18.90
2022-09-09T17:37:58.043Z,18.90
2022-09-09T17:40:25.064Z,18.90
2022-09-09T17:42:52.295Z,18.90
2022-09-09T17:45:19.448Z,18.80
2022-09-09T17:47:48.040Z,18.80
2022-09-09T17:50:15.166Z,18.70
2022-09-09T17:52:44.800Z,18.80
2022-09-09T17:55:11.758Z,18.80
2022-09-09T17:57:38.567Z,18.80
2022-09-09T18:00:07.962Z,18.80
2022-09-09T18:02:35.071Z,18.70
2022-09-09T18:05:02.152Z,18.70
2022-09-09T18:07:29.292Z,18.70
2022-09-09T18:09:57.398Z,18.60
2022-09-09T18:12:24.111Z,18.60
2022-09-09T18:14:50.799Z,18.60
2022-09-09T18:17:17.477Z,18.50
2022-09-09T18:19:44.312Z,18.50
2022-09-09T18:22:11.030Z,18.50
2022-09-09T18:24:37.737Z,18.40
2022-09-09T18:27:05.943Z,18.40
2022-09-09T18:29:32.666Z,18.30
2022-09-09T18:31:59.952Z,18.30
2022-09-09T18:34:26.904Z,18.30
2022-09-09T18:36:55.302Z,18.20
2022-09-09T18:39:23.789Z,17.90
2022-09-09T18:41:51.706Z,17.80
2022-09-09T18:44:21.817Z,17.50
2022-09-09T18:46:49.579Z,17.60
2022-09-09T18:49:16.394Z,17.60
2022-09-09T18:51:45.390Z,17.60
2022-09-09T18:54:14.564Z,17.60
2022-09-09T18:56:41.398Z,17.50
2022-09-09T18:59:10.387Z,17.40
2022-09-09T19:01:38.499Z,17.60
2022-09-09T19:04:06.574Z,17.50
2022-09-09T19:06:36.595Z,17.50
2022-09-09T19:09:04.382Z,17.50
2022-09-09T19:11:33.114Z,17.50
2022-09-09T19:14:02.467Z,17.50
2022-09-09T19:16:31.772Z,17.50
2022-09-09T19:19:01.342Z,17.50
2022-09-09T19:21:30.143Z,17.50
2022-09-09T19:23:58.503Z,17.50
2022-09-09T19:26:25.728Z,17.50
2022-09-09T19:28:52.626Z,17.40
2022-09-09T19:31:20.243Z,17.40
2022-09-09T19:33:48.069Z,17.40
2022-09-09T19:36:18.508Z,17.40
2022-09-09T19:38:45.894Z,17.40
2022-09-09T19:41:14.353Z,17.30
2022-09-09T19:43:41.450Z,17.30
2022-09-09T19:46:10.117Z,17.30
2022-09-09T19:48:38.757Z,17.30
2022-09-09T19:51:07.472Z,17.20
2022-09-09T19:53:38.954Z,17.20
2022-09-09T19:56:06.690Z,17.20
2022-09-09T19:58:34.372Z,17.20
2022-09-09T20:01:06.933Z,17.20
2022-09-09T20:03:35.432Z,17.20
2022-09-09T20:06:02.351Z,17.20
2022-09-09T20:08:29.088Z,17.20
2022-09-09T20:10:57.154Z,17.20
2022-09-09T20:13:24.032Z,17.20
2022-09-09T20:15:57.280Z,17.10
2022-09-09T20:18:24.029Z,17.10
2022-09-09T20:20:50.749Z,17.20
2022-09-09T20:23:17.470Z,17.10
2022-09-09T20:25:44.259Z,17.00
2022-09-09T20:28:12.838Z,17.00
2022-09-09T20:30:39.580Z,17.00
2022-09-09T20:33:06.301Z,17.10
2022-09-09T20:35:33.015Z,17.00
2022-09-09T20:37:59.728Z,17.00
2022-09-09T20:40:29.302Z,17.00
2022-09-09T20:42:59.586Z,16.90
2022-09-09T20:45:27.646Z,16.90
2022-09-09T20:47:55.150Z,16.90
2022-09-09T20:50:22.118Z,16.90
2022-09-09T20:52:48.854Z,16.90
2022-09-09T20:55:15.732Z,16.80
2022-09-09T20:57:42.458Z,16.80
2022-09-09T21:00:10.840Z,16.80
2022-09-09T21:02:39.040Z,16.70
2022-09-09T21:05:06.899Z,16.50
2022-09-09T21:07:33.671Z,16.50
2022-09-09T21:10:00.391Z,16.50
2022-09-09T21:12:27.111Z,16.50
2022-09-09T21:14:53.892Z,16.60
2022-09-09T21:17:20.619Z,16.60
2022-09-09T21:19:48.698Z,16.60
2022-09-09T21:22:15.408Z,16.60
2022-09-09T21:24:42.185Z,16.60
2022-09-09T21:27:08.951Z,16.60
2022-09-09T21:29:35.706Z,16.60
2022-09-09T21:32:02.977Z,16.60
2022-09-09T21:34:29.934Z,16.50
2022-09-09T21:36:58.008Z,16.50
2022-09-09T21:39:24.752Z,16.50
2022-09-09T21:41:51.532Z,16.60
2022-09-09T21:44:18.251Z,16.50
2022-09-09T21:46:45.180Z,16.50
2022-09-09T21:49:12.209Z,16.60
2022-09-09T21:51:39.050Z,16.60
2022-09-09T21:54:07.082Z,16.50
2022-09-09T21:56:33.858Z,16.50
2022-09-09T21:59:00.687Z,16.50
2022-09-09T22:01:27.503Z,16.50
2022-09-09T22:03:54.236Z,16.40
2022-09-09T22:06:20.939Z,16.40
2022-09-09T22:08:47.716Z,16.40
2022-09-09T22:11:18.539Z,16.50
2022-09-09T22:13:45.519Z,16.50
2022-09-09T22:16:14.220Z,16.40
2022-09-09T22:18:41.398Z,16.50
2022-09-09T22:21:09.848Z,16.40
2022-09-09T22:23:36.680Z,16.40
2022-09-09T22:26:03.843Z,16.40
2022-09-09T22:28:33.478Z,16.20
2022-09-09T22:31:00.373Z,16.00
2022-09-09T22:33:27.216Z,16.00
2022-09-09T22:35:54.613Z,16.20
2022-09-09T22:38:21.796Z,16.30
2022-09-09T22:40:48.760Z,16.30
2022-09-09T22:43:17.789Z,16.40
2022-09-09T22:45:46.489Z,16.30
2022-09-09T22:48:14.544Z,16.30
2022-09-09T22:50:42.404Z,16.30
2022-09-09T22:53:12.448Z,16.30
2022-09-09T22:55:39.167Z,16.40
2022-09-09T22:58:05.857Z,16.30
2022-09-09T23:00:32.579Z,16.30
2022-09-09T23:03:00.650Z,16.30
2022-09-09T23:05:27.402Z,16.30
2022-09-09T23:07:54.568Z,16.20
2022-09-09T23:10:22.049Z,16.20
2022-09-09T23:12:51.532Z,16.20
2022-09-09T23:15:18.385Z,16.20
2022-09-09T23:17:45.107Z,16.20
2022-09-09T23:20:13.219Z,16.20
2022-09-09T23:22:39.981Z,16.20
2022-09-09T23:25:07.450Z,16.20
2022-09-09T23:27:34.603Z,16.30
2022-09-09T23:30:01.320Z,16.20
2022-09-09T23:32:28.080Z,16.20
2022-09-09T23:34:54.779Z,16.20
2022-09-09T23:37:23.002Z,16.00
2022-09-09T23:39:49.761Z,16.10
2022-09-09T23:42:16.500Z,16.10
2022-09-09T23:44:43.306Z,16.10
2022-09-09T23:47:10.133Z,16.10
2022-09-09T23:49:37.585Z,16.20
2022-09-09T23:52:04.473Z,16.20
2022-09-09T23:54:34.430Z,16.20
2022-09-09T23:57:01.703Z,16.20
2022-09-09T23:59:28.546Z,16.10
